sensor_id;sensor_type;location;lat;lon;timestamp;temperature;humidity
66144;SHT31;52947;50.842;6.084;2023-03-23T00:01:30;12.04;83.07
66144;SHT31;52947;50.842;6.084;2023-03-23T00:04:03;12.03;83.01
66144;SHT31;52947;50.842;6.084;2023-03-23T00:06:31;12.04;83.13
66144;SHT31;52947;50.842;6.084;2023-03-23T00:09:00;12.04;83.05
66144;SHT31;52947;50.842;6.084;2023-03-23T00:11:30;12.09;82.98
66144;SHT31;52947;50.842;6.084;2023-03-23T00:13:59;12.07;83.12
66144;SHT31;52947;50.842;6.084;2023-03-23T00:16:29;12.04;83.34
66144;SHT31;52947;50.842;6.084;2023-03-23T00:18:59;12.03;83.49
66144;SHT31;52947;50.842;6.084;2023-03-23T00:21:27;11.93;84.12
66144;SHT31;52947;50.842;6.084;2023-03-23T00:24:03;11.85;84.35
66144;SHT31;52947;50.842;6.084;2023-03-23T00:26:31;11.76;84.59
66144;SHT31;52947;50.842;6.084;2023-03-23T00:29:00;11.76;84.50
66144;SHT31;52947;50.842;6.084;2023-03-23T00:31:28;11.75;84.46
66144;SHT31;52947;50.842;6.084;2023-03-23T00:33:57;11.73;84.66
66144;SHT31;52947;50.842;6.084;2023-03-23T00:36:26;11.76;84.40
66144;SHT31;52947;50.842;6.084;2023-03-23T00:38:54;11.79;84.44
66144;SHT31;52947;50.842;6.084;2023-03-23T00:41:25;11.75;84.56
66144;SHT31;52947;50.842;6.084;2023-03-23T00:43:54;11.82;84.38
66144;SHT31;52947;50.842;6.084;2023-03-23T00:46:22;11.82;84.46
66144;SHT31;52947;50.842;6.084;2023-03-23T00:48:49;11.79;84.64
66144;SHT31;52947;50.842;6.084;2023-03-23T00:51:16;11.76;84.82
66144;SHT31;52947;50.842;6.084;2023-03-23T00:53:44;11.75;84.94
66144;SHT31;52947;50.842;6.084;2023-03-23T00:56:11;11.69;85.18
66144;SHT31;52947;50.842;6.084;2023-03-23T00:58:39;11.65;85.41
66144;SHT31;52947;50.842;6.084;2023-03-23T01:01:06;11.58;85.74
66144;SHT31;52947;50.842;6.084;2023-03-23T01:03:34;11.48;86.16
66144;SHT31;52947;50.842;6.084;2023-03-23T01:06:09;11.41;86.41
66144;SHT31;52947;50.842;6.084;2023-03-23T01:08:42;11.36;86.81
66144;SHT31;52947;50.842;6.084;2023-03-23T01:11:13;11.27;87.24
66144;SHT31;52947;50.842;6.084;2023-03-23T01:13:42;11.24;87.71
66144;SHT31;52947;50.842;6.084;2023-03-23T01:16:10;11.21;87.79
66144;SHT31;52947;50.842;6.084;2023-03-23T01:18:37;11.18;88.04
66144;SHT31;52947;50.842;6.084;2023-03-23T01:21:06;11.15;88.12
66144;SHT31;52947;50.842;6.084;2023-03-23T01:23:34;11.14;87.84
66144;SHT31;52947;50.842;6.084;2023-03-23T01:26:05;11.14;87.29
66144;SHT31;52947;50.842;6.084;2023-03-23T01:28:33;11.20;87.42
66144;SHT31;52947;50.842;6.084;2023-03-23T01:31:03;11.17;87.45
66144;SHT31;52947;50.842;6.084;2023-03-23T01:33:31;11.25;86.64
66144;SHT31;52947;50.842;6.084;2023-03-23T01:36:02;11.24;86.76
66144;SHT31;52947;50.842;6.084;2023-03-23T01:38:29;11.25;86.48
66144;SHT31;52947;50.842;6.084;2023-03-23T01:40:56;11.27;86.28
66144;SHT31;52947;50.842;6.084;2023-03-23T01:43:23;11.28;86.29
66144;SHT31;52947;50.842;6.084;2023-03-23T01:45:50;11.32;86.08
66144;SHT31;52947;50.842;6.084;2023-03-23T01:48:21;11.31;86.24
66144;SHT31;52947;50.842;6.084;2023-03-23T01:50:52;11.34;86.24
66144;SHT31;52947;50.842;6.084;2023-03-23T01:53:22;11.36;86.16
66144;SHT31;52947;50.842;6.084;2023-03-23T01:55:52;11.42;85.87
66144;SHT31;52947;50.842;6.084;2023-03-23T01:58:23;11.45;85.45
66144;SHT31;52947;50.842;6.084;2023-03-23T02:00:54;11.42;85.44
66144;SHT31;52947;50.842;6.084;2023-03-23T02:03:24;11.45;85.51
66144;SHT31;52947;50.842;6.084;2023-03-23T02:05:52;11.42;85.50
66144;SHT31;52947;50.842;6.084;2023-03-23T02:08:28;11.39;85.50
66144;SHT31;52947;50.842;6.084;2023-03-23T02:10:59;11.45;85.44
66144;SHT31;52947;50.842;6.084;2023-03-23T02:13:28;11.48;85.61
66144;SHT31;52947;50.842;6.084;2023-03-23T02:16:03;11.48;85.65
66144;SHT31;52947;50.842;6.084;2023-03-23T02:18:50;11.48;85.90
66144;SHT31;52947;50.842;6.084;2023-03-23T02:21:44;11.43;85.93
66144;SHT31;52947;50.842;6.084;2023-03-23T02:24:48;11.45;86.04
66144;SHT31;52947;50.842;6.084;2023-03-23T02:27:23;11.49;85.89
66144;SHT31;52947;50.842;6.084;2023-03-23T02:30:14;11.51;85.78
66144;SHT31;52947;50.842;6.084;2023-03-23T02:33:15;11.55;85.83
66144;SHT31;52947;50.842;6.084;2023-03-23T02:35:43;11.57;85.73
66144;SHT31;52947;50.842;6.084;2023-03-23T02:38:15;11.57;85.75
66144;SHT31;52947;50.842;6.084;2023-03-23T02:40:45;11.57;85.75
66144;SHT31;52947;50.842;6.084;2023-03-23T02:43:15;11.62;85.54
66144;SHT31;52947;50.842;6.084;2023-03-23T02:45:44;11.58;85.53
66144;SHT31;52947;50.842;6.084;2023-03-23T02:48:14;11.63;85.31
66144;SHT31;52947;50.842;6.084;2023-03-23T02:50:45;11.62;85.24
66144;SHT31;52947;50.842;6.084;2023-03-23T02:53:16;11.63;85.38
66144;SHT31;52947;50.842;6.084;2023-03-23T02:55:44;11.62;85.36
66144;SHT31;52947;50.842;6.084;2023-03-23T02:58:16;11.63;85.32
66144;SHT31;52947;50.842;6.084;2023-03-23T03:00:44;11.62;85.17
66144;SHT31;52947;50.842;6.084;2023-03-23T03:03:18;11.59;85.36
66144;SHT31;52947;50.842;6.084;2023-03-23T03:05:55;11.59;85.21
66144;SHT31;52947;50.842;6.084;2023-03-23T03:08:30;11.63;85.19
66144;SHT31;52947;50.842;6.084;2023-03-23T03:11:04;11.63;85.17
66144;SHT31;52947;50.842;6.084;2023-03-23T03:13:38;11.66;84.97
66144;SHT31;52947;50.842;6.084;2023-03-23T03:16:16;11.65;85.14
66144;SHT31;52947;50.842;6.084;2023-03-23T03:18:52;11.61;85.15
66144;SHT31;52947;50.842;6.084;2023-03-23T03:21:23;11.62;85.06
66144;SHT31;52947;50.842;6.084;2023-03-23T03:23:56;11.61;85.06
66144;SHT31;52947;50.842;6.084;2023-03-23T03:26:28;11.65;85.04
66144;SHT31;52947;50.842;6.084;2023-03-23T03:29:02;11.66;84.84
66144;SHT31;52947;50.842;6.084;2023-03-23T03:31:32;11.68;84.65
66144;SHT31;52947;50.842;6.084;2023-03-23T03:34:01;11.68;84.62
66144;SHT31;52947;50.842;6.084;2023-03-23T03:36:32;11.69;84.67
66144;SHT31;52947;50.842;6.084;2023-03-23T03:39:05;11.68;84.70
66144;SHT31;52947;50.842;6.084;2023-03-23T03:41:36;11.66;84.76
66144;SHT31;52947;50.842;6.084;2023-03-23T03:44:05;11.61;84.71
66144;SHT31;52947;50.842;6.084;2023-03-23T03:46:32;11.71;84.44
66144;SHT31;52947;50.842;6.084;2023-03-23T03:49:02;11.71;84.37
66144;SHT31;52947;50.842;6.084;2023-03-23T03:51:31;11.66;84.47
66144;SHT31;52947;50.842;6.084;2023-03-23T03:53:59;11.69;84.64
66144;SHT31;52947;50.842;6.084;2023-03-23T03:56:26;11.68;84.40
66144;SHT31;52947;50.842;6.084;2023-03-23T03:59:06;11.68;84.35
66144;SHT31;52947;50.842;6.084;2023-03-23T04:01:47;11.89;84.68
66144;SHT31;52947;50.842;6.084;2023-03-23T04:04:21;11.97;84.29
66144;SHT31;52947;50.842;6.084;2023-03-23T04:06:48;11.93;84.30
66144;SHT31;52947;50.842;6.084;2023-03-23T04:09:16;12.03;83.92
66144;SHT31;52947;50.842;6.084;2023-03-23T04:11:46;12.02;83.92
66144;SHT31;52947;50.842;6.084;2023-03-23T04:14:34;12.03;83.75
66144;SHT31;52947;50.842;6.084;2023-03-23T04:17:00;11.99;83.84
66144;SHT31;52947;50.842;6.084;2023-03-23T04:19:29;12.03;84.05
66144;SHT31;52947;50.842;6.084;2023-03-23T04:21:59;11.99;84.01
66144;SHT31;52947;50.842;6.084;2023-03-23T04:24:29;11.90;84.14
66144;SHT31;52947;50.842;6.084;2023-03-23T04:26:59;11.94;83.93
66144;SHT31;52947;50.842;6.084;2023-03-23T04:29:28;11.94;83.96
66144;SHT31;52947;50.842;6.084;2023-03-23T04:32:18;11.85;84.17
66144;SHT31;52947;50.842;6.084;2023-03-23T04:34:52;11.89;84.10
66144;SHT31;52947;50.842;6.084;2023-03-23T04:37:25;11.90;84.27
66144;SHT31;52947;50.842;6.084;2023-03-23T04:39:55;11.83;84.21
66144;SHT31;52947;50.842;6.084;2023-03-23T04:42:28;11.82;84.15
66144;SHT31;52947;50.842;6.084;2023-03-23T04:45:34;11.87;84.15
66144;SHT31;52947;50.842;6.084;2023-03-23T04:48:04;11.83;84.30
66144;SHT31;52947;50.842;6.084;2023-03-23T04:50:43;11.83;83.88
66144;SHT31;52947;50.842;6.084;2023-03-23T04:53:19;11.81;83.98
66144;SHT31;52947;50.842;6.084;2023-03-23T04:55:46;11.85;83.89
66144;SHT31;52947;50.842;6.084;2023-03-23T04:58:16;11.83;83.81
66144;SHT31;52947;50.842;6.084;2023-03-23T05:00:52;11.85;84.12
66144;SHT31;52947;50.842;6.084;2023-03-23T05:03:21;11.89;83.68
66144;SHT31;52947;50.842;6.084;2023-03-23T05:05:53;11.76;83.68
66144;SHT31;52947;50.842;6.084;2023-03-23T05:08:21;11.75;83.87
66144;SHT31;52947;50.842;6.084;2023-03-23T05:10:51;11.73;83.56
66144;SHT31;52947;50.842;6.084;2023-03-23T05:13:20;11.72;83.04
66144;SHT31;52947;50.842;6.084;2023-03-23T05:15:50;11.78;83.59
66144;SHT31;52947;50.842;6.084;2023-03-23T05:18:18;11.81;83.32
66144;SHT31;52947;50.842;6.084;2023-03-23T05:20:46;11.75;83.18
66144;SHT31;52947;50.842;6.084;2023-03-23T05:23:19;11.72;83.38
66144;SHT31;52947;50.842;6.084;2023-03-23T05:25:54;11.73;83.37
66144;SHT31;52947;50.842;6.084;2023-03-23T05:28:22;11.62;83.37
66144;SHT31;52947;50.842;6.084;2023-03-23T05:31:02;11.61;83.21
66144;SHT31;52947;50.842;6.084;2023-03-23T05:33:31;11.61;83.37
66144;SHT31;52947;50.842;6.084;2023-03-23T05:36:15;11.59;83.22
66144;SHT31;52947;50.842;6.084;2023-03-23T05:39:03;11.52;83.44
66144;SHT31;52947;50.842;6.084;2023-03-23T05:41:53;11.62;83.74
66144;SHT31;52947;50.842;6.084;2023-03-23T05:44:21;11.66;83.31
66144;SHT31;52947;50.842;6.084;2023-03-23T05:46:51;11.55;83.20
66144;SHT31;52947;50.842;6.084;2023-03-23T05:49:18;11.58;83.15
66144;SHT31;52947;50.842;6.084;2023-03-23T05:51:47;11.54;83.09
66144;SHT31;52947;50.842;6.084;2023-03-23T05:54:17;11.61;83.13
66144;SHT31;52947;50.842;6.084;2023-03-23T05:56:46;11.57;83.47
66144;SHT31;52947;50.842;6.084;2023-03-23T05:59:14;11.65;83.19
66144;SHT31;52947;50.842;6.084;2023-03-23T06:01:44;11.72;82.99
66144;SHT31;52947;50.842;6.084;2023-03-23T06:04:11;11.63;83.14
66144;SHT31;52947;50.842;6.084;2023-03-23T06:06:59;11.72;82.92
66144;SHT31;52947;50.842;6.084;2023-03-23T06:09:27;11.75;83.12
66144;SHT31;52947;50.842;6.084;2023-03-23T06:12:03;11.63;82.98
66144;SHT31;52947;50.842;6.084;2023-03-23T06:14:49;11.66;83.18
66144;SHT31;52947;50.842;6.084;2023-03-23T06:17:22;11.76;82.86
66144;SHT31;52947;50.842;6.084;2023-03-23T06:19:52;11.78;82.75
66144;SHT31;52947;50.842;6.084;2023-03-23T06:22:20;11.76;82.91
66144;SHT31;52947;50.842;6.084;2023-03-23T06:24:54;11.82;82.84
66144;SHT31;52947;50.842;6.084;2023-03-23T06:27:28;11.96;82.47
66144;SHT31;52947;50.842;6.084;2023-03-23T06:29:56;12.04;81.90
66144;SHT31;52947;50.842;6.084;2023-03-23T06:32:25;12.09;81.99
66144;SHT31;52947;50.842;6.084;2023-03-23T06:34:53;12.19;81.84
66144;SHT31;52947;50.842;6.084;2023-03-23T06:37:38;12.06;81.70
66144;SHT31;52947;50.842;6.084;2023-03-23T06:40:16;12.04;81.85
66144;SHT31;52947;50.842;6.084;2023-03-23T06:42:50;12.03;81.72
66144;SHT31;52947;50.842;6.084;2023-03-23T06:45:40;12.04;81.35
66144;SHT31;52947;50.842;6.084;2023-03-23T06:48:33;12.02;81.47
66144;SHT31;52947;50.842;6.084;2023-03-23T06:51:00;12.07;81.68
66144;SHT31;52947;50.842;6.084;2023-03-23T06:53:29;12.13;81.28
66144;SHT31;52947;50.842;6.084;2023-03-23T06:55:59;12.19;80.97
66144;SHT31;52947;50.842;6.084;2023-03-23T06:58:26;12.16;81.04
66144;SHT31;52947;50.842;6.084;2023-03-23T07:00:55;12.06;80.88
66144;SHT31;52947;50.842;6.084;2023-03-23T07:03:38;12.07;81.13
66144;SHT31;52947;50.842;6.084;2023-03-23T07:06:08;12.13;80.76
66144;SHT31;52947;50.842;6.084;2023-03-23T07:08:42;12.26;80.27
66144;SHT31;52947;50.842;6.084;2023-03-23T07:11:15;12.30;80.33
66144;SHT31;52947;50.842;6.084;2023-03-23T07:13:42;12.27;80.32
66144;SHT31;52947;50.842;6.084;2023-03-23T07:16:09;12.24;79.96
66144;SHT31;52947;50.842;6.084;2023-03-23T07:18:38;12.04;80.59
66144;SHT31;52947;50.842;6.084;2023-03-23T07:21:06;12.02;80.52
66144;SHT31;52947;50.842;6.084;2023-03-23T07:23:33;12.03;80.63
66144;SHT31;52947;50.842;6.084;2023-03-23T07:26:03;12.03;80.56
66144;SHT31;52947;50.842;6.084;2023-03-23T07:28:39;12.12;80.27
66144;SHT31;52947;50.842;6.084;2023-03-23T07:31:38;12.20;79.96
66144;SHT31;52947;50.842;6.084;2023-03-23T07:34:06;12.20;79.91
66144;SHT31;52947;50.842;6.084;2023-03-23T07:36:54;12.22;79.86
66144;SHT31;52947;50.842;6.084;2023-03-23T07:39:23;12.20;79.95
66144;SHT31;52947;50.842;6.084;2023-03-23T07:41:53;12.17;79.97
66144;SHT31;52947;50.842;6.084;2023-03-23T07:44:34;12.33;80.01
66144;SHT31;52947;50.842;6.084;2023-03-23T07:47:07;12.53;79.31
66144;SHT31;52947;50.842;6.084;2023-03-23T07:49:35;12.57;78.78
66144;SHT31;52947;50.842;6.084;2023-03-23T07:52:26;12.64;78.82
66144;SHT31;52947;50.842;6.084;2023-03-23T07:54:52;12.58;78.93
66144;SHT31;52947;50.842;6.084;2023-03-23T07:57:29;12.50;79.23
66144;SHT31;52947;50.842;6.084;2023-03-23T07:59:59;12.45;79.24
66144;SHT31;52947;50.842;6.084;2023-03-23T08:02:30;12.45;79.36
66144;SHT31;52947;50.842;6.084;2023-03-23T08:05:24;12.45;79.12
66144;SHT31;52947;50.842;6.084;2023-03-23T08:08:10;12.47;79.10
66144;SHT31;52947;50.842;6.084;2023-03-23T08:10:56;12.43;79.39
66144;SHT31;52947;50.842;6.084;2023-03-23T08:13:42;12.51;78.90
66144;SHT31;52947;50.842;6.084;2023-03-23T08:16:40;12.55;78.89
66144;SHT31;52947;50.842;6.084;2023-03-23T08:19:39;12.72;78.89
66144;SHT31;52947;50.842;6.084;2023-03-23T08:22:18;12.74;78.84
66144;SHT31;52947;50.842;6.084;2023-03-23T08:25:14;12.67;79.00
66144;SHT31;52947;50.842;6.084;2023-03-23T08:27:59;12.58;79.47
66144;SHT31;52947;50.842;6.084;2023-03-23T08:30:50;12.57;79.64
66144;SHT31;52947;50.842;6.084;2023-03-23T08:33:26;12.67;79.57
66144;SHT31;52947;50.842;6.084;2023-03-23T08:36:09;12.71;79.69
66144;SHT31;52947;50.842;6.084;2023-03-23T08:38:51;12.67;80.52
66144;SHT31;52947;50.842;6.084;2023-03-23T08:41:37;12.64;80.50
66144;SHT31;52947;50.842;6.084;2023-03-23T08:44:16;12.50;80.84
66144;SHT31;52947;50.842;6.084;2023-03-23T08:47:02;12.48;81.65
66144;SHT31;52947;50.842;6.084;2023-03-23T08:49:49;12.37;81.01
66144;SHT31;52947;50.842;6.084;2023-03-23T08:52:36;12.30;81.48
66144;SHT31;52947;50.842;6.084;2023-03-23T08:55:19;12.23;81.74
66144;SHT31;52947;50.842;6.084;2023-03-23T08:58:19;12.22;81.96
66144;SHT31;52947;50.842;6.084;2023-03-23T09:01:06;12.27;81.70
66144;SHT31;52947;50.842;6.084;2023-03-23T09:03:42;12.26;81.30
66144;SHT31;52947;50.842;6.084;2023-03-23T09:06:34;12.27;80.72
66144;SHT31;52947;50.842;6.084;2023-03-23T09:09:01;12.34;80.84
66144;SHT31;52947;50.842;6.084;2023-03-23T09:11:32;12.43;80.26
66144;SHT31;52947;50.842;6.084;2023-03-23T09:13:59;12.48;80.27
66144;SHT31;52947;50.842;6.084;2023-03-23T09:16:26;12.67;79.99
66144;SHT31;52947;50.842;6.084;2023-03-23T09:18:53;13.04;79.31
66144;SHT31;52947;50.842;6.084;2023-03-23T09:21:22;13.04;79.04
66144;SHT31;52947;50.842;6.084;2023-03-23T09:23:50;12.99;78.95
66144;SHT31;52947;50.842;6.084;2023-03-23T09:26:17;13.01;79.33
66144;SHT31;52947;50.842;6.084;2023-03-23T09:28:44;13.11;79.57
66144;SHT31;52947;50.842;6.084;2023-03-23T09:31:11;12.94;80.61
66144;SHT31;52947;50.842;6.084;2023-03-23T09:33:38;12.89;81.21
66144;SHT31;52947;50.842;6.084;2023-03-23T09:36:06;12.98;80.61
66144;SHT31;52947;50.842;6.084;2023-03-23T09:38:36;13.11;80.36
66144;SHT31;52947;50.842;6.084;2023-03-23T09:41:12;13.26;79.89
66144;SHT31;52947;50.842;6.084;2023-03-23T09:43:54;13.83;79.11
66144;SHT31;52947;50.842;6.084;2023-03-23T09:46:37;14.01;78.34
66144;SHT31;52947;50.842;6.084;2023-03-23T09:49:10;13.94;77.93
66144;SHT31;52947;50.842;6.084;2023-03-23T09:51:44;13.69;78.93
66144;SHT31;52947;50.842;6.084;2023-03-23T09:54:18;13.66;79.14
66144;SHT31;52947;50.842;6.084;2023-03-23T09:56:47;13.66;79.02
66144;SHT31;52947;50.842;6.084;2023-03-23T09:59:16;13.50;79.74
66144;SHT31;52947;50.842;6.084;2023-03-23T10:01:47;13.40;80.23
66144;SHT31;52947;50.842;6.084;2023-03-23T10:04:23;13.20;81.54
66144;SHT31;52947;50.842;6.084;2023-03-23T10:06:51;12.88;82.77
66144;SHT31;52947;50.842;6.084;2023-03-23T10:09:19;12.95;83.04
66144;SHT31;52947;50.842;6.084;2023-03-23T10:11:56;13.70;81.63
66144;SHT31;52947;50.842;6.084;2023-03-23T10:14:31;14.51;78.50
66144;SHT31;52947;50.842;6.084;2023-03-23T10:17:03;14.58;77.98
66144;SHT31;52947;50.842;6.084;2023-03-23T10:19:35;14.54;78.22
66144;SHT31;52947;50.842;6.084;2023-03-23T10:22:09;14.34;77.70
66144;SHT31;52947;50.842;6.084;2023-03-23T10:24:41;14.36;77.62
66144;SHT31;52947;50.842;6.084;2023-03-23T10:27:19;14.26;77.90
66144;SHT31;52947;50.842;6.084;2023-03-23T10:29:50;14.25;78.53
66144;SHT31;52947;50.842;6.084;2023-03-23T10:32:34;14.18;78.82
66144;SHT31;52947;50.842;6.084;2023-03-23T10:35:05;13.83;78.98
66144;SHT31;52947;50.842;6.084;2023-03-23T10:37:36;13.67;80.13
66144;SHT31;52947;50.842;6.084;2023-03-23T10:40:11;13.57;80.46
66144;SHT31;52947;50.842;6.084;2023-03-23T10:42:41;13.49;81.01
66144;SHT31;52947;50.842;6.084;2023-03-23T10:45:15;13.20;82.19
66144;SHT31;52947;50.842;6.084;2023-03-23T10:47:46;13.16;82.44
66144;SHT31;52947;50.842;6.084;2023-03-23T10:50:17;13.16;82.37
66144;SHT31;52947;50.842;6.084;2023-03-23T10:52:44;13.23;81.67
66144;SHT31;52947;50.842;6.084;2023-03-23T10:55:13;13.27;81.78
66144;SHT31;52947;50.842;6.084;2023-03-23T10:57:43;13.01;83.13
66144;SHT31;52947;50.842;6.084;2023-03-23T11:00:18;12.87;82.85
66144;SHT31;52947;50.842;6.084;2023-03-23T11:02:56;12.84;83.28
66144;SHT31;52947;50.842;6.084;2023-03-23T11:05:26;12.87;84.14
66144;SHT31;52947;50.842;6.084;2023-03-23T11:07:56;13.08;84.13
66144;SHT31;52947;50.842;6.084;2023-03-23T11:10:26;13.15;83.63
66144;SHT31;52947;50.842;6.084;2023-03-23T11:12:57;13.35;82.58
66144;SHT31;52947;50.842;6.084;2023-03-23T11:15:28;13.62;81.65
66144;SHT31;52947;50.842;6.084;2023-03-23T11:18:00;13.81;81.56
66144;SHT31;52947;50.842;6.084;2023-03-23T11:20:32;13.80;81.01
66144;SHT31;52947;50.842;6.084;2023-03-23T11:23:01;13.78;80.37
66144;SHT31;52947;50.842;6.084;2023-03-23T11:25:28;13.83;80.67
66144;SHT31;52947;50.842;6.084;2023-03-23T11:27:56;13.74;80.75
66144;SHT31;52947;50.842;6.084;2023-03-23T11:30:26;13.84;80.26
66144;SHT31;52947;50.842;6.084;2023-03-23T11:32:54;13.83;80.18
66144;SHT31;52947;50.842;6.084;2023-03-23T11:35:23;13.97;79.71
66144;SHT31;52947;50.842;6.084;2023-03-23T11:37:53;14.29;78.46
66144;SHT31;52947;50.842;6.084;2023-03-23T11:40:22;14.79;77.45
66144;SHT31;52947;50.842;6.084;2023-03-23T11:42:58;15.10;76.65
66144;SHT31;52947;50.842;6.084;2023-03-23T11:45:32;14.97;76.73
66144;SHT31;52947;50.842;6.084;2023-03-23T11:48:09;15.17;75.64
66144;SHT31;52947;50.842;6.084;2023-03-23T11:50:47;15.23;76.08
66144;SHT31;52947;50.842;6.084;2023-03-23T11:53:22;15.24;76.33
66144;SHT31;52947;50.842;6.084;2023-03-23T11:55:57;14.90;76.07
66144;SHT31;52947;50.842;6.084;2023-03-23T11:58:28;14.52;76.86
66144;SHT31;52947;50.842;6.084;2023-03-23T12:01:02;14.20;77.73
66144;SHT31;52947;50.842;6.084;2023-03-23T12:03:49;14.25;77.27
66144;SHT31;52947;50.842;6.084;2023-03-23T12:06:24;14.59;76.90
66144;SHT31;52947;50.842;6.084;2023-03-23T12:09:01;14.44;76.74
66144;SHT31;52947;50.842;6.084;2023-03-23T12:11:37;14.71;76.58
66144;SHT31;52947;50.842;6.084;2023-03-23T12:14:18;14.85;75.87
66144;SHT31;52947;50.842;6.084;2023-03-23T12:16:57;14.99;75.34
66144;SHT31;52947;50.842;6.084;2023-03-23T12:19:33;15.30;74.02
66144;SHT31;52947;50.842;6.084;2023-03-23T12:22:18;15.17;74.43
66144;SHT31;52947;50.842;6.084;2023-03-23T12:24:59;14.99;75.07
66144;SHT31;52947;50.842;6.084;2023-03-23T12:27:30;14.79;75.24
66144;SHT31;52947;50.842;6.084;2023-03-23T12:30:21;14.86;75.91
66144;SHT31;52947;50.842;6.084;2023-03-23T12:33:04;14.61;76.50
66144;SHT31;52947;50.842;6.084;2023-03-23T12:35:44;14.22;78.89
66144;SHT31;52947;50.842;6.084;2023-03-23T12:38:25;13.91;79.80
66144;SHT31;52947;50.842;6.084;2023-03-23T12:41:08;13.78;79.90
66144;SHT31;52947;50.842;6.084;2023-03-23T12:43:41;13.60;81.05
66144;SHT31;52947;50.842;6.084;2023-03-23T12:46:36;13.46;81.28
66144;SHT31;52947;50.842;6.084;2023-03-23T12:49:07;13.30;82.48
66144;SHT31;52947;50.842;6.084;2023-03-23T12:51:40;13.25;82.95
66144;SHT31;52947;50.842;6.084;2023-03-23T12:54:14;13.15;82.66
66144;SHT31;52947;50.842;6.084;2023-03-23T12:56:48;12.78;84.23
66144;SHT31;52947;50.842;6.084;2023-03-23T12:59:21;12.33;85.79
66144;SHT31;52947;50.842;6.084;2023-03-23T13:01:55;12.06;87.05
66144;SHT31;52947;50.842;6.084;2023-03-23T13:04:27;11.86;87.49
66144;SHT31;52947;50.842;6.084;2023-03-23T13:06:57;11.79;88.56
66144;SHT31;52947;50.842;6.084;2023-03-23T13:09:28;11.81;87.87
66144;SHT31;52947;50.842;6.084;2023-03-23T13:11:58;12.06;87.92
66144;SHT31;52947;50.842;6.084;2023-03-23T13:14:37;12.27;87.65
66144;SHT31;52947;50.842;6.084;2023-03-23T13:17:17;12.43;86.99
66144;SHT31;52947;50.842;6.084;2023-03-23T13:19:59;12.55;85.78
66144;SHT31;52947;50.842;6.084;2023-03-23T13:22:33;12.67;85.49
66144;SHT31;52947;50.842;6.084;2023-03-23T13:25:07;12.69;85.46
66144;SHT31;52947;50.842;6.084;2023-03-23T13:27:35;12.69;85.36
66144;SHT31;52947;50.842;6.084;2023-03-23T13:30:02;12.78;85.15
66144;SHT31;52947;50.842;6.084;2023-03-23T13:32:34;12.94;85.15
66144;SHT31;52947;50.842;6.084;2023-03-23T13:35:03;13.05;84.12
66144;SHT31;52947;50.842;6.084;2023-03-23T13:37:31;13.19;84.19
66144;SHT31;52947;50.842;6.084;2023-03-23T13:40:11;13.19;83.54
66144;SHT31;52947;50.842;6.084;2023-03-23T13:42:48;13.27;83.55
66144;SHT31;52947;50.842;6.084;2023-03-23T13:45:21;13.39;83.36
66144;SHT31;52947;50.842;6.084;2023-03-23T13:48:01;13.40;81.54
66144;SHT31;52947;50.842;6.084;2023-03-23T13:50:30;13.43;81.49
66144;SHT31;52947;50.842;6.084;2023-03-23T13:52:59;13.49;82.05
66144;SHT31;52947;50.842;6.084;2023-03-23T13:55:40;13.29;82.59
66144;SHT31;52947;50.842;6.084;2023-03-23T13:58:20;13.12;83.50
66144;SHT31;52947;50.842;6.084;2023-03-23T14:00:49;12.98;84.57
66144;SHT31;52947;50.842;6.084;2023-03-23T14:03:19;13.01;84.49
66144;SHT31;52947;50.842;6.084;2023-03-23T14:06:01;13.01;84.32
66144;SHT31;52947;50.842;6.084;2023-03-23T14:08:39;13.01;84.07
66144;SHT31;52947;50.842;6.084;2023-03-23T14:11:16;12.98;84.34
66144;SHT31;52947;50.842;6.084;2023-03-23T14:13:49;13.02;84.57
66144;SHT31;52947;50.842;6.084;2023-03-23T14:16:19;13.06;83.97
66144;SHT31;52947;50.842;6.084;2023-03-23T14:18:52;13.11;83.99
66144;SHT31;52947;50.842;6.084;2023-03-23T14:21:32;13.30;83.17
66144;SHT31;52947;50.842;6.084;2023-03-23T14:24:01;13.39;83.21
66144;SHT31;52947;50.842;6.084;2023-03-23T14:26:28;13.46;82.84
66144;SHT31;52947;50.842;6.084;2023-03-23T14:28:55;13.59;82.91
66144;SHT31;52947;50.842;6.084;2023-03-23T14:31:24;13.81;82.15
66144;SHT31;52947;50.842;6.084;2023-03-23T14:33:54;13.91;81.18
66144;SHT31;52947;50.842;6.084;2023-03-23T14:36:22;14.01;80.23
66144;SHT31;52947;50.842;6.084;2023-03-23T14:38:59;14.14;80.34
66144;SHT31;52947;50.842;6.084;2023-03-23T14:41:29;14.18;79.55
66144;SHT31;52947;50.842;6.084;2023-03-23T14:43:57;14.11;79.11
66144;SHT31;52947;50.842;6.084;2023-03-23T14:46:26;14.20;79.07
66144;SHT31;52947;50.842;6.084;2023-03-23T14:48:54;14.21;78.94
66144;SHT31;52947;50.842;6.084;2023-03-23T14:51:21;14.38;79.51
66144;SHT31;52947;50.842;6.084;2023-03-23T14:53:48;14.45;79.62
66144;SHT31;52947;50.842;6.084;2023-03-23T14:56:19;14.35;79.78
66144;SHT31;52947;50.842;6.084;2023-03-23T14:58:49;14.28;79.11
66144;SHT31;52947;50.842;6.084;2023-03-23T15:01:18;14.34;79.69
66144;SHT31;52947;50.842;6.084;2023-03-23T15:03:51;14.35;78.66
66144;SHT31;52947;50.842;6.084;2023-03-23T15:06:21;14.46;77.61
66144;SHT31;52947;50.842;6.084;2023-03-23T15:08:53;14.55;77.27
66144;SHT31;52947;50.842;6.084;2023-03-23T15:11:24;14.56;76.55
66144;SHT31;52947;50.842;6.084;2023-03-23T15:13:53;14.59;75.57
66144;SHT31;52947;50.842;6.084;2023-03-23T15:16:25;14.59;76.17
66144;SHT31;52947;50.842;6.084;2023-03-23T15:18:55;14.65;76.30
66144;SHT31;52947;50.842;6.084;2023-03-23T15:21:27;14.66;75.90
66144;SHT31;52947;50.842;6.084;2023-03-23T15:23:54;14.66;75.50
66144;SHT31;52947;50.842;6.084;2023-03-23T15:26:29;14.52;75.49
66144;SHT31;52947;50.842;6.084;2023-03-23T15:29:15;14.44;74.98
66144;SHT31;52947;50.842;6.084;2023-03-23T15:31:44;14.44;75.35
66144;SHT31;52947;50.842;6.084;2023-03-23T15:34:19;14.45;75.02
66144;SHT31;52947;50.842;6.084;2023-03-23T15:36:54;14.46;74.61
66144;SHT31;52947;50.842;6.084;2023-03-23T15:39:21;14.52;75.07
66144;SHT31;52947;50.842;6.084;2023-03-23T15:41:50;14.52;74.70
66144;SHT31;52947;50.842;6.084;2023-03-23T15:44:26;14.62;74.33
66144;SHT31;52947;50.842;6.084;2023-03-23T15:47:02;14.59;73.56
66144;SHT31;52947;50.842;6.084;2023-03-23T15:49:30;14.61;73.44
66144;SHT31;52947;50.842;6.084;2023-03-23T15:51:58;14.62;73.95
66144;SHT31;52947;50.842;6.084;2023-03-23T15:54:29;14.55;73.78
66144;SHT31;52947;50.842;6.084;2023-03-23T15:56:56;14.48;72.62
66144;SHT31;52947;50.842;6.084;2023-03-23T15:59:23;14.45;72.45
66144;SHT31;52947;50.842;6.084;2023-03-23T16:01:51;14.46;72.81
66144;SHT31;52947;50.842;6.084;2023-03-23T16:04:19;14.48;72.70
66144;SHT31;52947;50.842;6.084;2023-03-23T16:06:49;14.46;72.27
66144;SHT31;52947;50.842;6.084;2023-03-23T16:09:19;14.41;72.10